Time;durP1;ratioP1;P1;durP2;ratioP2;P2;SDS_P1;SDS_P2;PMS_P1;PMS_P2;Temp;Humidity;BMP_temperature;BMP_pressure;BME280_temperature;BME280_humidity;BME280_pressure;Samples;Min_cycle;Max_cycle;Signal;HPM_P1;HPM_P2
2022/04/01 00:02:18;;;;;;;1999.90;999.90;;;;;;;15.39;60.26;93290.66;5111116;28;20648;-86
2022/04/01 00:04:43;;;;;;;1999.90;999.90;;;;;;;15.43;60.51;93270.50;5112350;28;20164;-86
2022/04/01 00:07:09;;;;;;;1999.90;999.90;;;;;;;15.14;60.99;93276.84;5111094;28;20172;-87
2022/04/01 00:09:35;;;;;;;1999.90;999.90;;;;;;;14.99;61.76;93283.84;5112779;28;20643;-86
2022/04/01 00:12:01;;;;;;;1999.90;999.90;;;;;;;14.93;62.52;93257.66;5116834;28;20164;-86
2022/04/01 00:14:26;;;;;;;1999.90;999.90;;;;;;;14.91;62.77;93303.00;5115335;28;20244;-86
2022/04/01 00:16:52;;;;;;;1999.90;999.90;;;;;;;14.48;62.81;93229.63;5115143;28;20646;-86
2022/04/01 00:19:20;;;;;;;1999.90;999.90;;;;;;;14.47;63.47;93246.59;5115514;28;20193;-86
2022/04/01 00:21:46;;;;;;;1999.90;999.90;;;;;;;14.61;63.59;93244.94;5103853;28;20611;-86
2022/04/01 00:24:11;;;;;;;1999.90;999.90;;;;;;;14.25;63.57;93212.56;5110232;28;20246;-86
2022/04/01 00:26:37;;;;;;;1999.90;999.90;;;;;;;14.52;63.85;93235.97;5109441;28;20161;-86
2022/04/01 00:29:14;;;;;;;1999.90;999.90;;;;;;;14.02;63.89;93178.78;5111056;28;20242;-86
2022/04/01 00:31:42;;;;;;;1999.90;999.90;;;;;;;14.27;63.54;93244.84;5116074;28;20210;-86
2022/04/01 00:34:16;;;;;;;1999.90;999.90;;;;;;;14.12;63.83;93229.81;5114898;28;20634;-86
2022/04/01 00:36:49;;;;;;;1999.90;999.90;;;;;;;14.10;64.33;93220.56;5131890;27;20171;-86
2022/04/01 00:39:17;;;;;;;1999.90;999.90;;;;;;;14.32;64.76;93281.84;5116190;28;20184;-86
2022/04/01 00:41:44;;;;;;;1999.90;999.90;;;;;;;14.27;64.60;93266.00;5115917;28;20169;-86
2022/04/01 00:44:22;;;;;;;1999.90;999.90;;;;;;;14.07;64.01;93210.53;5116429;28;20226;-86
2022/04/01 00:46:56;;;;;;;1999.90;999.90;;;;;;;14.49;63.65;93278.88;5114620;28;20669;-86
2022/04/01 00:49:23;;;;;;;40.40;28.03;;;;;;;14.27;64.93;93250.13;5115606;28;20262;-86
2022/04/01 00:51:50;;;;;;;34.37;12.00;;;;;;;14.04;65.16;93248.91;5115925;28;20199;-85
2022/04/01 00:54:17;;;;;;;29.57;9.30;;;;;;;14.03;64.63;93246.53;5115826;28;20683;-87
2022/04/01 00:56:43;;;;;;;29.63;7.33;;;;;;;13.87;64.96;93203.47;5115681;28;20195;-86
2022/04/01 00:59:09;;;;;;;23.70;6.07;;;;;;;13.88;65.77;93232.31;5114419;28;20189;-86
2022/04/01 01:01:36;;;;;;;27.60;7.00;;;;;;;14.11;63.08;93245.94;5131695;27;20168;-86
2022/04/01 01:04:07;;;;;;;30.27;6.90;;;;;;;14.16;64.54;93238.81;5110424;28;20574;-87
2022/04/01 01:06:37;;;;;;;27.87;6.87;;;;;;;13.89;64.66;93220.66;5106353;28;20165;-86
2022/04/01 01:09:03;;;;;;;29.67;7.00;;;;;;;13.83;64.00;93231.53;5099677;28;20181;-86
2022/04/01 01:11:30;;;;;;;29.40;6.90;;;;;;;13.96;64.02;93239.69;5098033;28;20659;-86
2022/04/01 01:13:55;;;;;;;42.90;11.23;;;;;;;14.22;61.38;93248.28;5113526;28;20170;-87
2022/04/01 01:16:21;;;;;;;28.67;8.40;;;;;;;14.54;61.21;93277.00;5115355;27;20577;-86
2022/04/01 01:19:07;;;;;;;28.10;6.23;;;;;;;14.41;61.64;93248.47;5115387;28;20261;-87
2022/04/01 01:21:34;;;;;;;24.50;7.10;;;;;;;14.55;61.87;93256.59;5115118;28;20157;-86
2022/04/01 01:24:04;;;;;;;23.43;6.73;;;;;;;14.51;61.98;93259.03;5115235;28;20157;-86
2022/04/01 01:26:32;;;;;;;52.13;10.13;;;;;;;14.15;61.08;93196.72;5115142;28;20203;-86
2022/04/01 01:28:58;;;;;;;33.43;14.07;;;;;;;14.16;61.07;93200.97;5115369;27;20622;-85
2022/04/01 01:31:25;;;;;;;34.37;12.33;;;;;;;14.54;61.27;93242.56;5115027;28;20157;-85
2022/04/01 01:33:51;;;;;;;27.67;16.03;;;;;;;14.40;61.24;93223.06;5113613;28;20173;-85
2022/04/01 01:36:17;;;;;;;68.47;61.20;;;;;;;14.19;60.72;93185.31;5113629;28;20161;-86
2022/04/01 01:38:42;;;;;;;75.33;69.23;;;;;;;14.19;61.09;93182.66;5130680;27;20195;-86
2022/04/01 01:41:08;;;;;;;262.03;243.27;;;;;;;14.35;60.71;93193.97;5130754;27;20259;-86
2022/04/01 01:43:33;;;;;;;1999.90;999.90;;;;;;;14.72;59.22;93241.91;5115288;28;20150;-86
2022/04/01 01:45:59;;;;;;;1999.90;999.90;;;;;;;14.70;59.27;93233.44;5108408;28;20243;-86
2022/04/01 01:48:25;;;;;;;1999.90;999.90;;;;;;;14.77;59.35;93221.78;5101111;28;20278;-86
2022/04/01 01:56:18;;;;;;;1999.90;999.90;;;;;;;15.02;56.85;93197.72;5106267;28;20306;-85
2022/04/01 01:58:44;;;;;;;1999.90;999.90;;;;;;;15.24;56.89;93237.78;5112363;27;20292;-85
2022/04/01 02:01:11;;;;;;;1999.90;999.90;;;;;;;15.31;55.55;93226.84;5092676;28;20181;-85
2022/04/01 02:03:36;;;;;;;1999.90;999.90;;;;;;;15.12;56.35;93171.13;5094234;28;20612;-86
2022/04/01 02:06:05;;;;;;;1999.90;999.90;;;;;;;15.32;55.84;93196.63;5093932;28;20188;-88
2022/04/01 02:08:31;;;;;;;1999.90;999.90;;;;;;;15.02;55.78;93137.56;5094121;28;20177;-89
2022/04/01 02:10:56;;;;;;;1999.90;999.90;;;;;;;14.81;56.31;93111.53;5093502;28;20162;-89
2022/04/01 02:13:23;;;;;;;1999.90;999.90;;;;;;;14.69;55.92;93118.00;5110322;28;20215;-90
2022/04/01 02:15:50;;;;;;;1999.90;999.90;;;;;;;15.17;56.60;93184.31;5093552;28;20170;-90
2022/04/01 02:18:16;;;;;;;1999.90;999.90;;;;;;;14.83;56.91;93125.28;5093329;28;20182;-90
2022/04/01 02:20:41;;;;;;;1999.90;999.90;;;;;;;14.84;55.27;93101.16;5110133;28;20223;-90
2022/04/01 02:23:11;;;;;;;1999.90;999.90;;;;;;;14.91;55.76;93108.78;5093338;28;20201;-90
2022/04/01 02:25:36;;;;;;;1999.90;999.90;;;;;;;15.09;55.94;93127.41;5093006;28;20161;-90
2022/04/01 02:28:02;;;;;;;1999.90;999.90;;;;;;;14.89;55.09;93085.22;5093290;28;20168;-91
2022/04/01 02:30:28;;;;;;;1999.90;999.90;;;;;;;14.94;55.15;93084.38;5093580;28;20176;-90
2022/04/01 02:32:54;;;;;;;1999.90;999.90;;;;;;;14.94;55.51;93089.69;5109137;28;20158;-91
2022/04/01 02:35:20;;;;;;;1999.90;999.90;;;;;;;15.39;54.90;93139.53;5095341;28;20177;-91
2022/04/01 02:37:47;;;;;;;1999.90;999.90;;;;;;;15.12;55.06;93081.00;5099236;28;20555;-90
2022/04/01 02:40:13;;;;;;;1999.90;999.90;;;;;;;15.45;55.15;93135.78;5102428;28;20184;-90
2022/04/01 02:42:39;;;;;;;1999.90;999.90;;;;;;;15.39;55.55;93128.16;5100567;28;20192;-91
2022/04/01 02:45:05;;;;;;;1999.90;999.90;;;;;;;15.07;55.82;93078.41;5103359;28;20573;-91
2022/04/01 02:47:31;;;;;;;1999.90;999.90;;;;;;;14.84;55.19;93055.34;5101807;28;20172;-89
2022/04/01 02:49:56;;;;;;;1999.90;999.90;;;;;;;14.85;54.26;93064.88;5105967;28;20170;-89
2022/04/01 02:52:22;;;;;;;1999.90;999.90;;;;;;;14.88;53.84;93011.31;5103342;28;20178;-88
2022/04/01 02:54:47;;;;;;;1999.90;999.90;;;;;;;15.19;52.97;93057.59;5099460;28;20173;-87
2022/04/01 02:57:13;;;;;;;1999.90;999.90;;;;;;;15.12;53.20;93021.91;5106721;28;20169;-87
2022/04/01 02:59:39;;;;;;;1999.90;999.90;;;;;;;15.21;53.95;93030.81;5112112;28;20619;-87
2022/04/01 03:02:04;;;;;;;1999.90;999.90;;;;;;;15.47;53.76;93093.84;5109955;28;20175;-87
2022/04/01 03:04:30;;;;;;;1999.90;999.90;;;;;;;15.03;53.12;93005.84;5099150;28;20214;-88
2022/04/01 03:06:56;;;;;;;1999.90;999.90;;;;;;;15.62;52.33;93084.94;5099332;28;20176;-88
2022/04/01 03:09:21;;;;;;;1999.90;999.90;;;;;;;15.49;52.97;93104.16;5106837;28;20160;-84
2022/04/01 03:11:47;;;;;;;1999.90;999.90;;;;;;;15.21;51.87;93036.13;5111977;28;20608;-89
2022/04/01 03:14:12;;;;;;;1999.90;999.90;;;;;;;15.75;52.34;93126.66;5113409;28;20169;-89
2022/04/01 03:16:41;;;;;;;1999.90;999.90;;;;;;;15.43;51.49;93076.13;5129461;27;20174;-88
2022/04/01 03:19:08;;;;;;;1999.90;999.90;;;;;;;15.78;51.92;93115.50;5109382;28;20197;-88
2022/04/01 03:21:39;;;;;;;1999.90;999.90;;;;;;;15.82;52.03;93136.94;5104738;28;20173;-89
2022/04/01 03:24:05;;;;;;;1999.90;999.90;;;;;;;15.65;51.42;93099.50;5103471;28;20575;-87
2022/04/01 03:26:31;;;;;;;1999.90;999.90;;;;;;;15.64;50.99;93095.28;5100695;28;20207;-89
2022/04/01 03:28:59;;;;;;;1999.90;999.90;;;;;;;15.68;50.86;93122.78;5092823;28;20228;-88
2022/04/01 03:31:25;;;;;;;1999.90;999.90;;;;;;;15.84;51.47;93110.91;5101583;28;20209;-89
2022/04/01 03:33:51;;;;;;;1999.90;999.90;;;;;;;15.90;49.84;93116.94;5105021;28;20180;-90
2022/04/01 03:36:18;;;;;;;1999.90;999.90;;;;;;;16.02;49.54;93128.69;5100010;28;20158;-88
2022/04/01 03:38:43;;;;;;;1999.90;999.90;;;;;;;15.85;49.71;93091.25;5105898;28;20572;-88
2022/04/01 03:41:10;;;;;;;1999.90;999.90;;;;;;;15.64;49.74;93047.53;5099577;28;20181;-89
2022/04/01 03:43:36;;;;;;;1999.90;999.90;;;;;;;15.75;49.75;93089.53;5111701;28;20184;-89
2022/04/01 03:46:14;;;;;;;1999.90;999.90;;;;;;;15.74;49.38;93069.38;5111684;28;20169;-88
2022/04/01 03:49:00;;;;;;;1999.90;999.90;;;;;;;15.99;49.92;93112.56;5111852;28;20686;-87
2022/04/01 03:51:28;;;;;;;1999.90;999.90;;;;;;;15.43;50.75;93039.78;5112071;28;20630;-90
2022/04/01 03:54:02;;;;;;;1999.90;999.90;;;;;;;15.72;50.40;93090.13;5111803;28;20668;-88
2022/04/01 03:56:34;;;;;;;1999.90;999.90;;;;;;;15.91;50.20;93113.22;5111924;28;20261;-88
2022/04/01 03:59:05;;;;;;;1999.90;999.90;;;;;;;15.95;50.03;93098.28;5111741;28;20220;-90
2022/04/01 04:01:31;;;;;;;1999.90;999.90;;;;;;;15.85;48.70;93075.34;5111664;28;20173;-88
2022/04/01 04:03:57;;;;;;;1999.90;999.90;;;;;;;16.09;48.31;93112.41;5111634;28;20309;-88
2022/04/01 04:06:24;;;;;;;1999.90;999.90;;;;;;;15.75;49.33;93051.59;5112979;28;20169;-89
2022/04/01 04:08:53;;;;;;;1999.90;999.90;;;;;;;15.62;49.17;93025.78;5111881;28;20149;-89
2022/04/01 04:11:22;;;;;;;1999.90;999.90;;;;;;;15.91;48.56;93062.81;5112031;28;20163;-89
2022/04/01 04:13:51;;;;;;;1999.90;999.90;;;;;;;15.19;49.09;92962.19;5112771;28;20183;-90
2022/04/01 04:16:22;;;;;;;1999.90;999.90;;;;;;;16.12;48.70;93083.44;5112771;28;20506;-90
2022/04/01 04:18:51;;;;;;;1999.90;999.90;;;;;;;15.97;47.81;93049.16;5111670;28;20725;-88
2022/04/01 04:21:24;;;;;;;1999.90;693.50;;;;;;;16.21;47.07;93081.72;5113558;28;20150;-88
2022/04/01 04:24:01;;;;;;;1999.90;999.90;;;;;;;16.22;46.92;93070.00;5112507;28;20154;-88
2022/04/01 04:26:32;;;;;;;1999.90;999.90;;;;;;;16.35;46.76;93088.94;5106160;28;20181;-87
2022/04/01 04:29:12;;;;;;;1999.90;999.90;;;;;;;16.18;46.12;93049.63;5101711;28;20160;-87
2022/04/01 04:32:02;;;;;;;1999.90;999.90;;;;;;;16.34;46.19;93056.28;5101107;28;20223;-87
2022/04/01 04:34:36;;;;;;;1999.90;999.90;;;;;;;16.45;45.77;93072.84;5100440;28;20651;-87
2022/04/01 04:37:03;;;;;;;1999.90;999.90;;;;;;;16.28;45.35;93046.03;5107630;28;20200;-86
2022/04/01 04:39:32;;;;;;;1999.90;999.90;;;;;;;16.73;44.53;93114.38;5092061;28;20217;-86
2022/04/01 04:41:59;;;;;;;1999.90;999.90;;;;;;;16.80;44.48;93109.47;5090133;28;20181;-86
2022/04/01 04:44:28;;;;;;;1999.90;997.88;;;;;;;16.71;44.55;93078.53;5090470;28;20235;-86
2022/04/01 04:46:55;;;;;;;1166.43;658.97;;;;;;;16.92;44.05;93099.16;5094864;28;20173;-85
2022/04/01 04:49:22;;;;;;;225.95;204.23;;;;;;;16.98;44.00;93098.00;5095409;28;20216;-86
2022/04/01 04:51:48;;;;;;;91.63;53.97;;;;;;;17.06;43.53;93093.06;5094938;28;20564;-88
2022/04/01 04:54:14;;;;;;;82.40;13.40;;;;;;;16.84;43.65;93046.69;5106133;28;20197;-87
2022/04/01 04:56:41;;;;;;;61.30;13.90;;;;;;;17.10;42.94;93081.56;5103660;28;20630;-89
2022/04/01 04:59:09;;;;;;;79.65;12.70;;;;;;;17.20;43.21;93107.19;5106609;28;20573;-87
2022/04/01 05:01:59;;;;;;;71.85;16.90;;;;;;;17.20;42.57;93086.69;5105300;28;20207;-86
2022/04/01 05:04:39;;;;;;;57.30;10.07;;;;;;;17.33;42.91;93109.03;5100973;28;20248;-84
2022/04/01 05:07:08;;;;;;;71.18;10.90;;;;;;;17.40;42.79;93114.75;5105088;28;20560;-83
2022/04/01 05:09:43;;;;;;;65.03;12.00;;;;;;;17.40;42.75;93114.75;5103002;28;20177;-86
2022/04/01 05:12:27;;;;;;;63.10;11.00;;;;;;;17.04;45.08;93066.00;5095182;28;20173;-82
2022/04/01 05:14:55;;;;;;;59.78;9.75;;;;;;;17.15;43.96;93091.31;5095009;28;20180;-87
2022/04/01 05:17:26;;;;;;;57.78;9.30;;;;;;;17.04;44.34;93084.63;5096586;28;20634;-82
2022/04/01 05:20:15;;;;;;;57.17;9.73;;;;;;;16.89;46.59;93065.19;5103291;28;20224;-81
2022/04/01 05:22:58;;;;;;;47.33;7.43;;;;;;;17.08;47.55;93098.88;5106403;28;20185;-83
2022/04/01 05:25:30;;;;;;;48.80;9.52;;;;;;;16.59;49.56;93092.28;5100992;28;20167;-83
2022/04/01 05:28:01;;;;;;;53.75;7.95;;;;;;;16.49;49.29;93106.50;5102557;28;20181;-83
2022/04/01 05:30:30;;;;;;;47.78;8.57;;;;;;;16.08;50.89;93071.03;5113323;28;20176;-82
2022/04/01 05:33:02;;;;;;;41.63;8.60;;;;;;;16.37;51.08;93108.81;5109833;28;20169;-85
2022/04/01 05:35:35;;;;;;;51.08;7.72;;;;;;;16.33;51.31;93089.25;5099803;28;20161;-82
2022/04/01 05:38:01;;;;;;;54.95;8.93;;;;;;;16.23;50.80;93098.16;5117159;27;20199;-86
2022/04/01 05:40:28;;;;;;;42.67;9.18;;;;;;;16.16;50.80;93120.81;5112138;28;20173;-86
2022/04/01 05:42:56;;;;;;;57.47;9.50;;;;;;;15.96;51.09;93082.09;5113531;28;20184;-84
2022/04/01 05:45:27;;;;;;;47.80;10.00;;;;;;;15.67;50.89;93023.06;5114512;28;20171;-84
2022/04/01 05:47:57;;;;;;;59.15;8.82;;;;;;;15.77;51.27;93068.03;5113382;28;20217;-84
2022/04/01 05:50:24;;;;;;;45.42;8.13;;;;;;;15.94;50.69;93059.56;5103117;28;20639;-84
2022/04/01 05:52:51;;;;;;;44.72;8.02;;;;;;;16.16;50.26;93092.41;5103775;28;20238;-84
2022/04/01 05:55:21;;;;;;;47.70;11.30;;;;;;;16.05;50.34;93075.06;5107739;28;20195;-84
2022/04/01 05:57:47;;;;;;;41.25;8.52;;;;;;;16.19;50.60;93091.81;5114335;28;20164;-84
2022/04/01 06:00:14;;;;;;;58.42;8.95;;;;;;;16.56;49.41;93100.81;5112866;28;20200;-84
2022/04/01 06:03:15;;;;;;;65.95;8.05;;;;;;;17.45;47.12;93106.69;5114368;27;20208;-84
2022/04/01 06:05:49;;;;;;;52.17;8.50;;;;;;;17.73;47.22;93094.94;5057637;28;20191;-84
2022/04/01 06:08:49;;;;;;;55.10;8.70;;;;;;;18.14;45.98;93099.41;5107038;28;20543;-84
2022/04/01 06:11:58;;;;;;;51.28;9.23;;;;;;;19.47;42.95;93079.84;5098584;28;20169;-85
2022/04/01 06:14:54;;;;;;;46.03;7.75;;;;;;;21.13;40.35;93104.47;5048143;28;20187;-84
2022/04/01 06:18:06;;;;;;;55.97;9.80;;;;;;;21.92;38.64;93101.16;5092422;28;20169;-85
2022/04/01 06:20:40;;;;;;;59.05;10.02;;;;;;;22.59;35.91;93086.81;5092189;28;20621;-85
2022/04/01 06:23:12;;;;;;;39.47;9.65;;;;;;;22.91;35.99;93051.22;5120339;27;20210;-84
2022/04/01 06:25:43;;;;;;;43.30;9.10;;;;;;;24.03;34.95;93127.81;5102811;28;20169;-84
2022/04/01 06:28:24;;;;;;;50.72;10.10;;;;;;;24.85;33.19;93110.59;5106424;28;20244;-84
2022/04/01 06:30:50;;;;;;;57.15;11.45;;;;;;;24.96;32.27;93100.97;5073497;28;20233;-84
2022/04/01 06:33:47;;;;;;;50.30;9.30;;;;;;;25.19;32.05;93131.59;5071784;28;20178;-85
2022/04/01 06:36:21;;;;;;;58.90;10.75;;;;;;;25.11;32.24;93102.91;5073056;28;20181;-85
2022/04/01 06:39:01;;;;;;;53.83;10.30;;;;;;;24.30;32.90;93129.03;5098349;28;20296;-84
2022/04/01 06:41:35;;;;;;;47.35;9.93;;;;;;;23.99;35.31;93107.28;5096598;28;20266;-86
2022/04/01 06:44:01;;;;;;;58.38;9.90;;;;;;;24.31;34.09;93082.19;5097795;28;20234;-85
2022/04/01 06:46:27;;;;;;;46.78;9.77;;;;;;;24.19;34.36;93059.88;5101951;28;20177;-85
2022/04/01 06:48:53;;;;;;;46.83;9.50;;;;;;;24.30;33.10;93112.88;5098655;28;20600;-84
2022/04/01 06:51:19;;;;;;;47.40;8.88;;;;;;;24.14;33.93;93117.34;5099379;28;20246;-85
2022/04/01 06:53:45;;;;;;;71.68;11.45;;;;;;;24.05;33.91;93127.44;5097547;28;20178;-85
2022/04/01 06:56:11;;;;;;;58.92;11.18;;;;;;;23.93;35.43;93101.38;5101452;28;20234;-85
2022/04/01 06:58:37;;;;;;;51.80;9.68;;;;;;;24.28;34.99;93117.06;5101072;28;20213;-86
2022/04/01 07:01:03;;;;;;;65.38;9.75;;;;;;;23.70;34.01;93138.66;5100774;28;20627;-86
2022/04/01 07:03:30;;;;;;;52.10;10.85;;;;;;;23.04;35.53;93118.34;5094025;28;20189;-86
2022/04/01 07:05:56;;;;;;;46.92;9.15;;;;;;;23.31;35.19;93123.91;5102671;28;20229;-87
2022/04/01 07:08:21;;;;;;;55.33;10.10;;;;;;;22.92;36.33;93111.81;5102954;28;20180;-87
2022/04/01 07:10:48;;;;;;;47.92;10.80;;;;;;;22.89;35.68;93139.31;5106638;28;20181;-87
2022/04/01 07:13:14;;;;;;;43.17;10.50;;;;;;;22.58;35.60;93118.22;5092622;28;20182;-88
2022/04/01 07:15:40;;;;;;;61.65;10.25;;;;;;;22.98;36.63;93101.66;5100158;28;20642;-88
2022/04/01 07:18:06;;;;;;;45.42;9.82;;;;;;;23.58;35.76;93076.84;5100277;28;20173;-89
2022/04/01 07:20:32;;;;;;;60.78;10.70;;;;;;;24.47;34.40;93143.38;5097567;28;20204;-88
2022/04/01 07:22:57;;;;;;;48.60;10.60;;;;;;;24.81;32.90;93124.00;5106748;28;20204;-86
2022/04/01 07:25:24;;;;;;;54.83;10.50;;;;;;;24.78;33.77;93141.59;5111843;28;20203;-78
2022/04/01 07:27:54;;;;;;;56.28;9.00;;;;;;;25.02;33.38;93123.81;5101250;28;20173;-90
2022/04/01 07:30:20;;;;;;;48.88;9.55;;;;;;;25.01;33.39;93077.25;5106517;28;20252;-91
2022/04/01 07:32:50;;;;;;;54.60;9.70;;;;;;;25.31;32.57;93101.13;5104845;28;20260;-85
2022/04/01 07:35:16;;;;;;;41.85;8.60;;;;;;;24.79;32.27;93104.69;5103847;28;20172;-86
2022/04/01 07:37:42;;;;;;;48.35;9.63;;;;;;;24.62;33.10;93105.75;5099592;28;20179;-88
2022/04/01 07:40:09;;;;;;;54.08;8.98;;;;;;;24.32;32.76;93062.22;5098915;28;20198;-86
2022/04/01 07:42:36;;;;;;;50.63;9.80;;;;;;;24.32;33.47;93105.25;5104768;28;20172;-87
2022/04/01 07:45:03;;;;;;;52.50;10.00;;;;;;;24.34;32.98;93091.47;5097818;28;20173;-86
2022/04/01 07:47:28;;;;;;;55.28;10.85;;;;;;;24.48;32.23;93123.38;5024462;27;20227;-87
2022/04/01 07:49:54;;;;;;;54.10;9.13;;;;;;;24.19;33.62;93094.84;5031625;28;20609;-89
2022/04/01 07:52:21;;;;;;;55.78;10.00;;;;;;;24.20;32.71;93120.63;5030340;28;20180;-91
2022/04/01 07:54:49;;;;;;;52.47;10.40;;;;;;;24.01;33.11;93075.50;5030613;28;20209;-85
2022/04/01 07:57:15;;;;;;;69.05;9.95;;;;;;;24.04;32.10;93051.38;5029342;28;20180;-86
2022/04/01 07:59:42;;;;;;;54.63;9.65;;;;;;;24.51;33.43;93055.44;5030212;28;20196;-86
2022/04/01 08:02:08;;;;;;;62.42;11.63;;;;;;;25.00;31.32;93069.50;5031020;28;20176;-86
2022/04/01 08:04:34;;;;;;;54.60;9.77;;;;;;;25.62;30.15;93121.94;5027896;28;20603;-86
2022/04/01 08:07:00;;;;;;;50.75;10.63;;;;;;;26.04;31.19;93070.94;5029308;28;20608;-87
2022/04/01 08:09:26;;;;;;;64.10;11.40;;;;;;;25.72;28.82;93097.94;5029966;28;20179;-90
2022/04/01 08:11:53;;;;;;;54.05;10.80;;;;;;;25.34;29.12;93108.53;5029193;28;20258;-88
2022/04/01 08:14:18;;;;;;;69.68;9.57;;;;;;;24.02;29.83;93032.13;5030636;28;20167;-91
2022/04/01 08:16:45;;;;;;;57.45;9.93;;;;;;;23.17;30.58;93091.22;5030193;28;20192;-87
2022/04/01 08:19:11;;;;;;;46.72;7.90;;;;;;;23.09;30.75;93092.06;5029900;28;20191;-89
2022/04/01 08:21:37;;;;;;;63.05;10.68;;;;;;;22.81;31.26;93043.59;5029639;28;20709;-88
2022/04/01 08:24:03;;;;;;;50.53;8.63;;;;;;;22.91;32.36;93102.22;5031166;28;20278;-89
2022/04/01 08:26:29;;;;;;;68.80;9.38;;;;;;;22.06;32.38;92983.03;5029866;28;20203;-90
2022/04/01 08:28:56;;;;;;;52.63;8.88;;;;;;;22.32;32.54;93009.59;5030479;28;20195;-90
2022/04/01 08:31:22;;;;;;;64.20;12.00;;;;;;;23.26;32.20;93077.69;5047402;28;20653;-88
2022/04/01 08:33:50;;;;;;;66.55;11.63;;;;;;;23.29;32.21;93077.00;5033450;28;20176;-85
2022/04/01 08:36:17;;;;;;;54.05;9.98;;;;;;;22.97;32.45;93000.78;5034688;28;20175;-86
2022/04/01 08:38:43;;;;;;;52.65;9.30;;;;;;;23.69;31.89;93050.31;5034159;28;20194;-83
2022/04/01 08:41:09;;;;;;;51.13;9.73;;;;;;;23.04;31.73;93059.28;5034649;28;20164;-82
2022/04/01 08:43:37;;;;;;;51.95;9.25;;;;;;;22.73;33.13;93068.56;5033369;28;20164;-83
2022/04/01 08:46:05;;;;;;;56.60;8.90;;;;;;;22.04;34.44;93017.44;5033829;28;20211;-86
2022/04/01 08:48:32;;;;;;;50.65;9.38;;;;;;;22.04;35.39;93053.06;5032368;28;20250;-84
2022/04/01 08:50:58;;;;;;;75.68;9.95;;;;;;;21.46;36.23;93051.94;5034087;28;20567;-82
2022/04/01 08:53:25;;;;;;;44.17;8.20;;;;;;;20.86;37.93;93027.25;5033748;28;20180;-83
2022/04/01 08:55:55;;;;;;;67.45;11.60;;;;;;;20.39;38.88;93027.22;5033620;28;20167;-83
2022/04/01 08:58:23;;;;;;;58.38;9.30;;;;;;;20.13;38.89;92986.34;5032376;28;20200;-84
2022/04/01 09:00:50;;;;;;;58.70;9.07;;;;;;;20.24;39.24;92992.91;5034119;28;20260;-81
2022/04/01 09:03:18;;;;;;;60.63;9.35;;;;;;;20.56;39.61;92980.94;5033931;28;20633;-83
2022/04/01 09:05:50;;;;;;;62.85;10.32;;;;;;;20.83;39.15;92993.16;5033602;28;20179;-83
2022/04/01 09:08:42;;;;;;;63.03;8.90;;;;;;;20.54;39.14;92985.81;5033152;28;20179;-80
2022/04/01 09:11:16;;;;;;;52.13;7.75;;;;;;;20.29;39.42;92987.41;5046447;28;20198;-82
2022/04/01 09:13:48;;;;;;;59.13;10.50;;;;;;;20.37;40.08;92989.31;5032484;28;20187;-82
2022/04/01 09:16:32;;;;;;;61.60;7.97;;;;;;;20.45;39.76;92963.66;5032357;28;20603;-83
2022/04/01 09:19:04;;;;;;;55.42;11.70;;;;;;;20.69;39.15;92975.38;5032098;28;20282;-82
2022/04/01 09:21:32;;;;;;;75.20;10.90;;;;;;;20.77;38.94;92967.66;5033299;28;20613;-80
2022/04/01 09:23:59;;;;;;;48.45;9.65;;;;;;;20.88;38.91;92960.84;5031097;28;20184;-82
2022/04/01 09:26:35;;;;;;;55.40;9.02;;;;;;;20.87;38.49;92961.97;5033844;28;20170;-81
2022/04/01 09:29:02;;;;;;;47.50;8.75;;;;;;;20.85;38.47;92970.28;5032899;28;20179;-82
2022/04/01 09:31:37;;;;;;;48.22;10.23;;;;;;;20.96;39.11;92962.72;5034049;28;20167;-83
2022/04/01 09:34:06;;;;;;;61.97;7.80;;;;;;;21.06;39.03;92955.13;5034646;28;20173;-83
2022/04/01 09:36:39;;;;;;;46.72;9.85;;;;;;;21.09;37.74;92961.72;5032868;28;20184;-82
2022/04/01 09:39:18;;;;;;;54.85;9.38;;;;;;;20.64;39.66;92938.13;5034237;28;20549;-81
2022/04/01 09:41:49;;;;;;;58.72;9.18;;;;;;;20.79;39.86;92941.38;5028765;28;20625;-81
2022/04/01 09:44:21;;;;;;;50.33;9.82;;;;;;;20.80;38.09;92937.59;5032833;28;20221;-81
2022/04/01 09:46:52;;;;;;;51.75;8.43;;;;;;;20.91;38.31;92957.56;5032894;28;20559;-81
2022/04/01 09:49:36;;;;;;;60.85;8.98;;;;;;;20.90;38.34;92923.88;5032581;28;20266;-81
2022/04/01 09:52:08;;;;;;;52.20;8.02;;;;;;;21.10;38.15;92952.59;5032266;28;20214;-82
2022/04/01 09:54:42;;;;;;;65.97;10.02;;;;;;;20.98;37.84;92931.84;5031327;28;20723;-83
2022/04/01 09:57:08;;;;;;;73.93;8.73;;;;;;;21.18;39.05;92938.41;5031617;28;20179;-80
2022/04/01 09:59:35;;;;;;;50.95;8.35;;;;;;;20.97;38.55;92913.44;5032012;28;20737;-80
2022/04/01 10:02:00;;;;;;;56.75;8.77;;;;;;;20.96;39.05;92919.91;5030708;28;20194;-81
2022/04/01 10:04:26;;;;;;;37.47;7.50;;;;;;;21.05;39.00;92932.13;5031978;28;20183;-81
2022/04/01 10:06:52;;;;;;;50.45;10.15;;;;;;;21.26;38.14;92977.72;5031102;28;20234;-82
2022/04/01 10:09:21;;;;;;;57.72;9.23;;;;;;;20.58;38.02;92912.66;5030009;28;20633;-81
2022/04/01 10:11:50;;;;;;;55.72;9.40;;;;;;;20.91;37.55;92969.03;5031752;28;20183;-81
2022/04/01 10:14:22;;;;;;;68.85;11.32;;;;;;;21.18;38.26;92983.91;5031475;28;20203;-81
2022/04/01 10:16:48;;;;;;;61.83;10.02;;;;;;;21.23;37.29;92967.66;5032478;28;20233;-83
2022/04/01 10:19:21;;;;;;;47.97;8.93;;;;;;;21.38;36.90;92975.13;5031328;28;20207;-82
2022/04/01 10:21:47;;;;;;;51.95;9.35;;;;;;;20.85;37.45;92886.59;5031809;28;20168;-81
2022/04/01 10:24:13;;;;;;;45.22;7.65;;;;;;;21.02;37.41;92953.38;5032603;28;20180;-81
2022/04/01 10:26:49;;;;;;;63.63;9.02;;;;;;;20.98;38.44;92936.44;5032371;28;20175;-82
2022/04/01 10:29:15;;;;;;;36.65;7.22;;;;;;;21.00;37.14;92945.72;5030979;28;20170;-81
2022/04/01 10:31:53;;;;;;;45.35;8.35;;;;;;;21.05;37.10;92937.47;5047471;28;20290;-82
2022/04/01 10:34:20;;;;;;;42.15;7.25;;;;;;;21.12;37.15;92945.00;5031752;28;20167;-82
2022/04/01 10:37:02;;;;;;;55.83;8.10;;;;;;;20.77;37.56;92898.13;5030666;28;20258;-81
2022/04/01 10:39:28;;;;;;;59.33;9.40;;;;;;;20.77;37.46;92904.25;5047893;28;20206;-81
2022/04/01 10:42:12;;;;;;;46.13;9.05;;;;;;;20.69;37.73;92921.13;5032149;28;20258;-81
2022/04/01 10:44:53;;;;;;;52.10;7.53;;;;;;;20.90;37.80;92950.63;5030948;28;20175;-81
2022/04/01 10:47:21;;;;;;;48.35;7.30;;;;;;;20.90;37.73;92929.22;5032129;28;20267;-81
2022/04/01 10:52:31;;;;;;;51.92;7.95;;;;;;;21.19;37.74;92931.91;5012731;28;20179;-82
2022/04/01 10:55:16;;;;;;;45.38;9.82;;;;;;;21.30;37.42;92926.97;5012079;28;20255;-82
2022/04/01 10:57:46;;;;;;;55.00;7.75;;;;;;;21.26;37.89;92910.03;5010940;28;20183;-81
2022/04/01 11:00:16;;;;;;;44.47;7.97;;;;;;;21.06;35.89;92901.59;5012309;28;20188;-81
2022/04/01 11:02:44;;;;;;;37.42;7.20;;;;;;;20.96;35.94;92879.78;5012044;28;20184;-81
2022/04/01 11:05:33;;;;;;;46.60;8.25;;;;;;;20.99;36.57;92873.78;5009821;28;20247;-80
2022/04/01 11:08:15;;;;;;;44.97;8.15;;;;;;;21.32;35.81;92908.72;5011778;28;20180;-82
2022/04/01 11:11:19;;;;;;;37.80;6.05;;;;;;;21.38;35.41;92913.53;5012069;28;20168;-82
2022/04/01 11:14:02;;;;;;;40.17;7.28;;;;;;;21.55;35.65;92879.72;5010115;28;20176;-83
2022/04/01 11:16:45;;;;;;;40.00;9.15;;;;;;;21.26;34.97;92876.00;5011109;28;20176;-80
2022/04/01 11:19:25;;;;;;;31.35;6.50;;;;;;;21.24;35.48;92888.94;5007663;28;20195;-80
2022/04/01 11:21:51;;;;;;;35.10;6.65;;;;;;;20.97;36.11;92908.09;5009418;28;20194;-79
2022/04/01 11:24:38;;;;;;;34.50;5.65;;;;;;;20.96;36.51;92912.66;5010529;28;20181;-79
2022/04/01 11:27:06;;;;;;;35.97;7.13;;;;;;;20.59;37.32;92945.53;5009865;28;20250;-79
2022/04/01 11:29:32;;;;;;;34.17;7.55;;;;;;;20.18;37.82;92916.69;5010748;28;20686;-79
2022/04/01 11:32:09;;;;;;;42.63;6.22;;;;;;;20.33;37.91;92932.22;5011167;28;20350;-79
2022/04/01 11:34:55;;;;;;;31.95;7.13;;;;;;;20.34;38.39;92936.50;5010533;28;20225;-79